地図

経路データ

SID SEASON NUMBER BASIN SUBBASIN NAME ISO_TIME NATURE LAT LON WMO_WIND WMO_PRES WMO_AGENCY TRACK_TYPE DIST2LAND LANDFALL IFLAG USA_AGENCY USA_ATCF_ID USA_LAT USA_LON USA_RECORD USA_STATUS USA_WIND USA_PRES USA_SSHS USA_R34_NE USA_R34_SE USA_R34_SW USA_R34_NW USA_R50_NE USA_R50_SE USA_R50_SW USA_R50_NW USA_R64_NE USA_R64_SE USA_R64_SW USA_R64_NW USA_POCI USA_ROCI USA_RMW USA_EYE TOKYO_LAT TOKYO_LON TOKYO_GRADE TOKYO_WIND TOKYO_PRES TOKYO_R50_DIR TOKYO_R50_LONG TOKYO_R50_SHORT TOKYO_R30_DIR TOKYO_R30_LONG TOKYO_R30_SHORT TOKYO_LAND CMA_LAT CMA_LON CMA_CAT CMA_WIND CMA_PRES HKO_LAT HKO_LON HKO_CAT HKO_WIND HKO_PRES NEWDELHI_LAT NEWDELHI_LON NEWDELHI_GRADE NEWDELHI_WIND NEWDELHI_PRES NEWDELHI_CI NEWDELHI_DP NEWDELHI_POCI REUNION_LAT REUNION_LON REUNION_TYPE REUNION_WIND REUNION_PRES REUNION_TNUM REUNION_CI REUNION_RMW REUNION_R34_NE REUNION_R34_SE REUNION_R34_SW REUNION_R34_NW REUNION_R50_NE REUNION_R50_SE REUNION_R50_SW REUNION_R50_NW REUNION_R64_NE REUNION_R64_SE REUNION_R64_SW REUNION_R64_NW BOM_LAT BOM_LON BOM_TYPE BOM_WIND BOM_PRES BOM_TNUM BOM_CI BOM_RMW BOM_R34_NE BOM_R34_SE BOM_R34_SW BOM_R34_NW BOM_R50_NE BOM_R50_SE BOM_R50_SW BOM_R50_NW BOM_R64_NE BOM_R64_SE BOM_R64_SW BOM_R64_NW BOM_ROCI BOM_POCI BOM_EYE BOM_POS_METHOD BOM_PRES_METHOD NADI_LAT NADI_LON NADI_CAT NADI_WIND NADI_PRES WELLINGTON_LAT WELLINGTON_LON WELLINGTON_WIND WELLINGTON_PRES DS824_LAT DS824_LON DS824_STAGE DS824_WIND DS824_PRES TD9636_LAT TD9636_LON TD9636_STAGE TD9636_WIND TD9636_PRES TD9635_LAT TD9635_LON TD9635_WIND TD9635_PRES TD9635_ROCI NEUMANN_LAT NEUMANN_LON NEUMANN_CLASS NEUMANN_WIND NEUMANN_PRES MLC_LAT MLC_LON MLC_CLASS MLC_WIND MLC_PRES USA_GUST BOM_GUST BOM_GUST_PER REUNION_GUST REUNION_GUST_PER USA_SEAHGT USA_SEARAD_NE USA_SEARAD_SE USA_SEARAD_SW USA_SEARAD_NW STORM_SPEED STORM_DIR
2021104N08137 2021 24 WP MM SURIGAE 2021-04-13 12:00:00 NR 7.90000 137.300 PROVISIONAL 981 979 O_____________ tcvightals WP022021 7.90000 137.300 25 1004 -1 1008 190 30 4 292
2021104N08137 2021 24 WP MM SURIGAE 2021-04-13 15:00:00 NR 7.97996 137.098 PROVISIONAL 989 989 P_____________ WP022021 7.97996 137.098 27 1001 -1 1007 202 30 3 315
2021104N08137 2021 24 WP MM SURIGAE 2021-04-13 18:00:00 NR 8.10000 137.100 PROVISIONAL 1000 1000 O_____________ tcvightals WP022021 8.10000 137.100 29 999 -1 1006 215 30 4 45
2021104N08137 2021 24 WP MM SURIGAE 2021-04-13 21:00:00 NR 8.28513 137.407 PROVISIONAL 1028 1028 P_____________ WP022021 8.28513 137.407 32 998 -1 1006 205 55 7 56
2021104N08137 2021 24 WP MM SURIGAE 2021-04-14 00:00:00 NR 8.50000 137.700 PROVISIONAL 1056 1056 O_____________ tcvightals WP022021 8.50000 137.700 35 998 0 30 50 100 85 1006 195 80 5 26
2021104N08137 2021 24 WP MM SURIGAE 2021-04-14 03:00:00 NR 8.72998 137.625 PROVISIONAL 1076 1076 P_____________ WP022021 8.72998 137.625 35 997 0 37 60 82 80 1006 197 75 5 324
2021104N08137 2021 24 WP MM SURIGAE 2021-04-14 06:00:00 NR 8.90000 137.400 PROVISIONAL 1094 1090 O_____________ tcvightals WP022021 8.90000 137.400 35 997 0 45 70 65 75 1006 200 70 5 295
2021104N08137 2021 24 WP MM SURIGAE 2021-04-14 09:00:00 NR 8.93002 137.192 PROVISIONAL 1090 1086 P_____________ WP022021 8.93002 137.192 35 997 0 32 60 67 47 1007 215 60 4 270
2021104N08137 2021 24 WP MM SURIGAE 2021-04-14 12:00:00 NR 8.90000 137.000 PROVISIONAL 1086 1085 O_____________ tcvightals WP022021 8.90000 137.000 35 997 0 20 50 70 20 1008 230 50 3 265
2021104N08137 2021 24 WP MM SURIGAE 2021-04-14 15:00:00 NR 8.90140 136.883 PROVISIONAL 1085 1083 P_____________ WP022021 8.90140 136.883 40 995 0 30 60 90 25 1006 207 50 2 270
2021104N08137 2021 24 WP MM SURIGAE 2021-04-14 18:00:00 NR 8.90000 136.800 PROVISIONAL 1083 1082 O_____________ tcvightals WP022021 8.90000 136.800 45 993 0 40 70 110 30 1004 185 50 2 266
2021104N08137 2021 24 WP MM SURIGAE 2021-04-14 21:00:00 NR 8.88913 136.722 PROVISIONAL 1082 1081 P_____________ WP022021 8.88913 136.722 46 992 0 2 264
2021104N08137 2021 24 WP MM SURIGAE 2021-04-15 00:00:00 NR 8.88113 136.625 PROVISIONAL 1081 1080 I_____________ tcvightals WP022021 8.88113 136.625 48 991 0 2 268
2021104N08137 2021 24 WP MM SURIGAE 2021-04-15 03:00:00 NR 8.88162 136.494 PROVISIONAL 1080 1076 P_____________ WP022021 8.88162 136.494 49 990 0 3 273
2021104N08137 2021 24 WP MM SURIGAE 2021-04-15 06:00:00 NR 8.90000 136.300 PROVISIONAL 1076 1045 O_____________ tcvightals WP022021 8.90000 136.300 51 990 0 40 130 126 40 1004 195 25 5 282
2021104N08137 2021 24 WP MM SURIGAE 2021-04-15 09:00:00 NR 8.98145 136.013 PROVISIONAL 1045 1012 P_____________ WP022021 8.98145 136.013 52 989 0 52 132 128 52 1005 195 25 6 280
2021104N08137 2021 24 WP MM SURIGAE 2021-04-15 12:00:00 NR 9.00000 135.700 PROVISIONAL 1012 987 O_____________ tcvightals WP022021 9.00000 135.700 54 989 0 65 135 130 65 1006 195 25 6 251
2021104N08137 2021 24 WP MM SURIGAE 2021-04-15 15:00:00 NR 8.79245 135.450 PROVISIONAL 977 952 P_____________ WP022021 8.79245 135.450 59 986 0 65 135 128 65 1006 227 19 6 231
2021104N08137 2021 24 WP MM SURIGAE 2021-04-15 18:00:00 NR 8.60000 135.200 PROVISIONAL 952 919 O_____________ tcvightals WP022021 8.60000 135.200 64 983 1 65 135 126 65 1006 260 14 5 253
2021104N08137 2021 24 WP MM SURIGAE 2021-04-15 21:00:00 NR 8.63993 134.930 PROVISIONAL 919 889 P_____________ WP022021 8.63993 134.930 69 980 1 65 127 133 82 1006 247 14 6 289
2021104N08137 2021 24 WP MM SURIGAE 2021-04-16 00:00:00 NR 8.80000 134.600 PROVISIONAL 889 849 O_____________ tcvightals WP022021 8.80000 134.600 74 978 1 65 120 140 100 1007 235 14 8 295
2021104N08137 2021 24 WP MM SURIGAE 2021-04-16 03:00:00 NR 9.00004 134.165 PROVISIONAL 849 799 P_____________ WP022021 9.00004 134.165 74 976 1 77 130 130 85 1005 225 17 10 294
2021104N08137 2021 24 WP MM SURIGAE 2021-04-16 06:00:00 NR 9.20000 133.700 PROVISIONAL 799 758 O_____________ tcvightals WP022021 9.20000 133.700 74 975 1 90 140 120 70 1004 215 20 9 288
2021104N08137 2021 24 WP MM SURIGAE 2021-04-16 09:00:00 NR 9.28493 133.292 PROVISIONAL 758 719 P_____________ WP022021 9.28493 133.292 81 971 1 100 150 127 90 1005 222 20 8 284
2021104N08137 2021 24 WP MM SURIGAE 2021-04-16 12:00:00 NR 9.40000 132.900 PROVISIONAL 719 683 O_____________ tcvightals WP022021 9.40000 132.900 89 967 2 110 160 135 110 1007 230 20 9 296
2021104N08137 2021 24 WP MM SURIGAE 2021-04-16 15:00:00 NR 9.66240 132.515 PROVISIONAL 686 650 P_____________ WP022021 9.66240 132.515 102 955 3 130 150 145 115 1006 235 13 10 307
2021104N08137 2021 24 WP MM SURIGAE 2021-04-16 18:00:00 NR 10.0000 132.100 PROVISIONAL 650 604 O_____________ tcvightals WP022021 10.0000 132.100 115 943 4 150 140 155 120 1005 240 6 11 308
2021104N08137 2021 24 WP MM SURIGAE 2021-04-16 21:00:00 NR 10.3500 131.608 PROVISIONAL 607 562 P_____________ WP022021 10.3500 131.608 117 941 4 150 142 140 132 1006 242 5 12 305
2021104N08137 2021 24 WP MM SURIGAE 2021-04-17 00:00:00 NR 10.7000 131.100 PROVISIONAL 562 528 O_____________ tcvightals WP022021 10.7000 131.100 119 940 4 150 145 126 145 1007 245 5 11 305
2021104N08137 2021 24 WP MM SURIGAE 2021-04-17 03:00:00 NR 10.9999 130.650 PROVISIONAL 522 481 P_____________ WP022021 10.9999 130.650 123 932 4 162 157 133 150 1007 302 5 11 304
2021104N08137 2021 24 WP MM SURIGAE 2021-04-17 06:00:00 NR 11.3000 130.200 PROVISIONAL 481 430 O_____________ tcvightals WP022021 11.3000 130.200 128 925 4 175 170 140 155 1007 360 5 11 305
2021104N08137 2021 24 WP MM SURIGAE 2021-04-17 09:00:00 NR 11.6500 129.693 PROVISIONAL 432 387 P_____________ WP022021 11.6500 129.693 141 912 5 180 172 140 152 1007 330 5 12 306
2021104N08137 2021 24 WP MM SURIGAE 2021-04-17 12:00:00 NR 12.0000 129.200 PROVISIONAL 387 357 O_____________ tcvightals WP022021 12.0000 129.200 154 900 5 185 175 140 150 1007 300 5 11 306
2021104N08137 2021 24 WP MM SURIGAE 2021-04-17 15:00:00 NR 12.3074 128.777 PROVISIONAL 357 318 P_____________ WP022021 12.3074 128.777 158 894 5 187 160 155 172 1007 315 5 10 308
2021104N08137 2021 24 WP MM SURIGAE 2021-04-17 18:00:00 NR 12.6000 128.400 PROVISIONAL 318 282 O_____________ tcvightals WP022021 12.6000 128.400 163 888 5 190 145 170 195 1007 330 5 10 310
2021104N08137 2021 24 WP MM SURIGAE 2021-04-17 21:00:00 NR 12.9225 128.028 PROVISIONAL 282 263 P_____________ WP022021 12.9225 128.028 155 898 5 177 150 160 175 1007 320 5 9 311
2021104N08137 2021 24 WP MM SURIGAE 2021-04-18 00:00:00 NR 13.2000 127.700 PROVISIONAL 263 246 O_____________ tcvightals WP022021 13.2000 127.700 148 908 5 165 155 150 155 1008 310 5 7 309
2021104N08137 2021 24 WP MM SURIGAE 2021-04-18 03:00:00 NR 13.3874 127.427 PROVISIONAL 246 234 P_____________ WP022021 13.3874 127.427 141 916 5 170 160 145 157 1007 292 5 6 302
2021104N08137 2021 24 WP MM SURIGAE 2021-04-18 06:00:00 NR 13.5000 127.200 PROVISIONAL 234 218 O_____________ tcvightals WP022021 13.5000 127.200 134 924 4 175 165 140 160 1006 275 5 5 290
2021104N08137 2021 24 WP MM SURIGAE 2021-04-18 09:00:00 NR 13.5425 126.985 PROVISIONAL 218 210 P_____________ WP022021 13.5425 126.985 129 928 4 175 172 152 177 1006 262 5 4 284
2021104N08137 2021 24 WP MM SURIGAE 2021-04-18 12:00:00 NR 13.6000 126.800 PROVISIONAL 210 202 O_____________ tcvightals WP022021 13.6000 126.800 124 932 4 175 180 165 195 1007 250 5 4 305
2021104N08137 2021 24 WP MM SURIGAE 2021-04-18 15:00:00 NR 13.7850 126.635 PROVISIONAL 210 210 P_____________ WP022021 13.7850 126.635 121 934 4 172 162 150 177 1006 255 5 5 324
2021104N08137 2021 24 WP MM SURIGAE 2021-04-18 18:00:00 NR 14.0000 126.500 PROVISIONAL 219 217 O_____________ tcvightals WP022021 14.0000 126.500 119 937 4 170 145 135 160 1006 260 5 5 326
2021104N08137 2021 24 WP MM SURIGAE 2021-04-18 21:00:00 NR 14.1575 126.377 PROVISIONAL 218 207 P_____________ WP022021 14.1575 126.377 121 934 4 177 155 145 165 1006 260 9 4 327
2021104N08137 2021 24 WP MM SURIGAE 2021-04-19 00:00:00 NR 14.3000 126.300 PROVISIONAL 209 209 O_____________ tcvightals WP022021 14.3000 126.300 124 931 4 185 165 155 170 1006 260 14 3 346
2021104N08137 2021 24 WP MM SURIGAE 2021-04-19 03:00:00 NR 14.4575 126.292 PROVISIONAL 215 215 P_____________ WP022021 14.4575 126.292 124 930 4 180 170 160 182 1006 260 14 3 0
2021104N08137 2021 24 WP MM SURIGAE 2021-04-19 06:00:00 NR 14.6000 126.300 PROVISIONAL 219 213 O_____________ tcvightals WP022021 14.6000 126.300 124 930 4 175 175 165 195 1006 260 14 2 349
2021104N08137 2021 24 WP MM SURIGAE 2021-04-19 09:00:00 NR 14.7000 126.243 PROVISIONAL 213 213 P_____________ WP022021 14.7000 126.243 121 932 4 180 177 160 180 1005 237 14 2 333
2021104N08137 2021 24 WP MM SURIGAE 2021-04-19 12:00:00 NR 14.8000 126.200 PROVISIONAL 218 218 O_____________ tcvightals WP022021 14.8000 126.200 119 935 4 185 180 155 165 1005 215 14 2 6
2021104N08137 2021 24 WP MM SURIGAE 2021-04-19 15:00:00 NR 14.9425 126.250 PROVISIONAL 223 223 P_____________ WP022021 14.9425 126.250 117 937 4 175 170 155 165 1005 222 17 3 17
2021104N08137 2021 24 WP MM SURIGAE 2021-04-19 18:00:00 NR 15.1000 126.300 PROVISIONAL 244 244 O_____________ tcvightals WP022021 15.1000 126.300 115 940 4 165 160 155 165 1005 230 20 3 5
2021104N08137 2021 24 WP MM SURIGAE 2021-04-19 21:00:00 NR 15.2350 126.272 PROVISIONAL 251 249 P_____________ WP022021 15.2350 126.272 115 939 4 170 160 155 167 1005 230 20 3 343
2021104N08137 2021 24 WP MM SURIGAE 2021-04-20 00:00:00 NR 15.4000 126.200 PROVISIONAL 256 256 O_____________ tcvightals WP022021 15.4000 126.200 115 939 4 175 160 155 170 1005 230 20 4 337
2021104N08137 2021 24 WP MM SURIGAE 2021-04-20 03:00:00 NR 15.6275 126.100 PROVISIONAL 263 263 P_____________ WP022021 15.6275 126.100 115 939 4 175 160 160 167 1004 220 20 5 339
2021104N08137 2021 24 WP MM SURIGAE 2021-04-20 06:00:00 NR 15.9000 126.000 PROVISIONAL 280 280 O_____________ tcvightals WP022021 15.9000 126.000 115 939 4 175 160 165 165 1004 210 20 6 347
2021104N08137 2021 24 WP MM SURIGAE 2021-04-20 09:00:00 NR 16.2000 125.965 PROVISIONAL 306 306 P_____________ WP022021 16.2000 125.965 115 940 4 175 160 157 165 1004 210 20 6 351
2021104N08137 2021 24 WP MM SURIGAE 2021-04-20 12:00:00 NR 16.5000 125.900 PROVISIONAL 328 328 O_____________ tcvightals WP022021 16.5000 125.900 115 941 4 175 160 150 165 1005 210 20 6 337
2021104N08137 2021 24 WP MM SURIGAE 2021-04-20 15:00:00 NR 16.7650 125.715 PROVISIONAL 340 319 P_____________ WP022021 16.7650 125.715 117 938 4 172 165 152 172 1004 195 22 6 322
2021104N08137 2021 24 WP MM SURIGAE 2021-04-20 18:00:00 NR 17.0000 125.500 PROVISIONAL 319 308 O_____________ tcvightals WP022021 17.0000 125.500 119 935 4 170 170 155 180 1004 180 25 6 320
2021104N08137 2021 24 WP MM SURIGAE 2021-04-20 21:00:00 NR 17.1850 125.342 PROVISIONAL 298 288 P_____________ WP022021 17.1850 125.342 119 935 4 170 180 147 172 1004 180 25 5 325
2021104N08137 2021 24 WP MM SURIGAE 2021-04-21 00:00:00 NR 17.4000 125.200 PROVISIONAL 290 276 O_____________ tcvightals WP022021 17.4000 125.200 119 935 4 170 190 140 165 1004 180 25 6 331
2021104N08137 2021 24 WP MM SURIGAE 2021-04-21 03:00:00 NR 17.7275 125.028 PROVISIONAL 276 273 P_____________ WP022021 17.7275 125.028 117 937 4 162 180 140 162 1003 180 25 8 338
2021104N08137 2021 24 WP MM SURIGAE 2021-04-21 06:00:00 NR 18.1000 124.900 PROVISIONAL 275 274 O_____________ tcvightals WP022021 18.1000 124.900 115 940 4 155 170 140 160 1003 180 25 8 350
2021104N08137 2021 24 WP MM SURIGAE 2021-04-21 09:00:00 NR 18.4650 124.885 PROVISIONAL 274 274 P_____________ WP022021 18.4650 124.885 112 943 3 155 170 140 160 1004 175 25 7 0
2021104N08137 2021 24 WP MM SURIGAE 2021-04-21 12:00:00 NR 18.8000 124.900 PROVISIONAL 277 271 O_____________ tcvightals WP022021 18.8000 124.900 109 946 3 155 170 140 160 1005 170 25 6 356
2021104N08137 2021 24 WP MM SURIGAE 2021-04-21 15:00:00 NR 19.0800 124.835 PROVISIONAL 274 274 P_____________ WP022021 19.0800 124.835 107 947 3 167 165 137 152 1004 165 27 5 349
2021104N08137 2021 24 WP MM SURIGAE 2021-04-21 18:00:00 NR 19.3000 124.800 PROVISIONAL 281 281 O_____________ tcvightals WP022021 19.3000 124.800 105 948 3 180 160 135 145 1003 160 30 4 8
2021104N08137 2021 24 WP MM SURIGAE 2021-04-21 21:00:00 NR 19.4350 124.870 PROVISIONAL 295 295 P_____________ WP022021 19.4350 124.870 102 951 3 180 160 147 147 1004 162 28 4 32
2021104N08137 2021 24 WP MM SURIGAE 2021-04-22 00:00:00 NR 19.6000 125.000 PROVISIONAL 314 314 O_____________ tcvightals WP022021 19.6000 125.000 99 954 3 180 160 160 150 1005 165 27 5 24
2021104N08137 2021 24 WP MM SURIGAE 2021-04-22 03:00:00 NR 19.9349 125.105 PROVISIONAL 338 338 P_____________ WP022021 19.9349 125.105 94 958 2 172 160 152 147 1005 172 24 8 22
2021104N08137 2021 24 WP MM SURIGAE 2021-04-22 06:00:00 NR 20.3000 125.300 PROVISIONAL 379 379 O_____________ tcvightals WP022021 20.3000 125.300 89 962 2 165 160 145 145 1005 180 22 8 40
2021104N08137 2021 24 WP MM SURIGAE 2021-04-22 09:00:00 NR 20.5500 125.648 PROVISIONAL 418 418 P_____________ WP022021 20.5500 125.648 86 964 2 155 157 140 135 1005 177 22 9 56
2021104N08137 2021 24 WP MM SURIGAE 2021-04-22 12:00:00 NR 20.8000 126.100 PROVISIONAL 480 480 O_____________ tcvightals WP022021 20.8000 126.100 84 966 2 145 155 135 126 1005 175 22 10 56
2021104N08137 2021 24 WP MM SURIGAE 2021-04-22 15:00:00 NR 21.1274 126.578 PROVISIONAL 541 541 P_____________ WP022021 21.1274 126.578 82 967 1 152 137 127 128 1004 187 28 12 53
2021104N08137 2021 24 WP MM SURIGAE 2021-04-22 18:00:00 NR 21.5000 127.100 PROVISIONAL 609 609 O_____________ tcvightals WP022021 21.5000 127.100 80 969 1 160 120 120 130 1004 200 35 13 53
2021104N08137 2021 24 WP MM SURIGAE 2021-04-22 21:00:00 NR 21.9001 127.665 PROVISIONAL 659 659 P_____________ WP022021 21.9001 127.665 80 970 1 165 125 125 135 1005 255 32 13 52
2021104N08137 2021 24 WP MM SURIGAE 2021-04-23 00:00:00 NR 22.3000 128.200 PROVISIONAL 687 687 O_____________ tcvightals WP022021 22.3000 128.200 80 972 1 170 130 130 140 1007 310 30 12 48
2021104N08137 2021 24 WP MM SURIGAE 2021-04-23 03:00:00 NR 22.6871 128.608 PROVISIONAL 711 711 P_____________ WP022021 22.6871 128.608 72 976 1 165 140 135 142 1007 302 37 10 47
2021104N08137 2021 24 WP MM SURIGAE 2021-04-23 06:00:00 NR 23.0000 129.000 PROVISIONAL 741 741 O_____________ tcvightals WP022021 23.0000 129.000 64 981 1 160 150 140 145 1007 295 45 10 58
2021104N08137 2021 24 WP MM SURIGAE 2021-04-23 09:00:00 NR 23.2103 129.523 PROVISIONAL 785 785 P_____________ WP022021 23.2103 129.523 59 983 0 180 157 133 145 1007 302 50 10 72
2021104N08137 2021 24 WP MM SURIGAE 2021-04-23 12:00:00 NR 23.3000 130.000 PROVISIONAL 833 833 O_____________ tcvightals WP022021 23.3000 130.000 54 986 0 200 165 126 145 1007 310 55 7 84
2021104N08137 2021 24 WP MM SURIGAE 2021-04-23 15:00:00 NR 23.2872 130.280 PROVISIONAL 860 860 P_____________ WP022021 23.2872 130.280 57 984 0 220 147 128 165 1007 310 50 5 102
2021104N08137 2021 24 WP MM SURIGAE 2021-04-23 18:00:00 NR 23.2000 130.500 PROVISIONAL 871 871 O_____________ tcvightals WP022021 23.2000 130.500 60 982 0 240 130 130 185 1007 310 45 5 111
2021104N08137 2021 24 WP MM SURIGAE 2021-04-23 21:00:00 NR 23.1149 130.777 PROVISIONAL 882 882 P_____________ WP022021 23.1149 130.777 57 983 0 240 130 130 185 1007 310 45 6 110
2021104N08137 2021 24 WP MM SURIGAE 2021-04-24 00:00:00 NR 23.0000 131.100 PROVISIONAL 894 894 O_____________ tcvightals WP022021 23.0000 131.100 54 985 0 240 130 130 185 1007 310 45 7 111
2021104N08137 2021 24 WP MM SURIGAE 2021-04-24 03:00:00 NR 22.8724 131.470 PROVISIONAL 908 908 P_____________ WP022021 22.8724 131.470 49 986 0 252 137 122 185 1006 295 45 8 112
2021104N08137 2021 24 WP MM SURIGAE 2021-04-24 06:00:00 NR 22.7000 131.900 PROVISIONAL 934 934 O_____________ tcvightals WP022021 22.7000 131.900 45 988 0 265 145 115 185 1005 280 45 9 116
2021104N08137 2021 24 WP MM SURIGAE 2021-04-24 09:00:00 NR 22.4648 132.370 PROVISIONAL 964 964 P_____________ WP022021 22.4648 132.370 42 989 0 255 155 132 190 1005 265 47 11 118
2021104N08137 2021 24 WP MM SURIGAE 2021-04-24 12:00:00 NR 22.2000 132.900 PROVISIONAL 1006 1006 O_____________ tcvightals WP022021 22.2000 132.900 39 991 0 245 165 150 195 1005 250 50 11 119
2021104N08137 2021 24 WP MM SURIGAE 2021-04-24 15:00:00 NR 21.9117 133.433 PROVISIONAL 1051 1051 P_____________ WP022021 21.9117 133.433 39 991 0 252 152 138 182 1005 250 55 12 114
2021104N08137 2021 24 WP MM SURIGAE 2021-04-24 18:00:00 NR 21.7000 134.100 PROVISIONAL 1092 1092 O_____________ tcvightals WP022021 21.7000 134.100 39 992 0 260 140 126 170 1005 250 60 15 100
2021104N08137 2021 24 WP MM SURIGAE 2021-04-24 21:00:00 NR 21.6517 134.984 PROVISIONAL 1123 1123 P_____________ WP022021 21.6517 134.984 39 994 0 207 125 123 140 1005 250 60 18 90
2021104N08137 2021 24 WP MM SURIGAE 2021-04-25 00:00:00 NR 21.7000 136.000 PROVISIONAL 1164 O_____________ tcvightals WP022021 21.7000 136.000 39 996 0 155 110 120 110 1005 250 60 19 87

デジタル台風データ・検索

IBTrACS Databaseについて

本データベースは、米国NOAAが公開する1842年以降の世界の熱帯低気圧のベストトラックデータアーカイブInternational Best Track Archive for Climate Stewardship (IBTrACS)を、ウェブで閲覧しやすい形式に変換したものです。

最終更新日:2021-12-06